x

West Santa Barbara 38 Nm West Of Santa Barbara, Ca (46054) Wave Buoy

10:50am - Mon 22nd Dec 2014 All times are PST. -8 hours from GMT.

  • Sig Wave height 11.2ft
  • Swell Direction
  • Peak Period 14s
  • Average Period 8s
  • Wind
    27mph, 34mph gusts
  • Sea Temp 62°f
  • 空気 Temp 65°f
  • Sea Pressure 1018mb
  • West Santa Barbara  38 Nm West Of Santa Barbara, Ca
  • West Santa Barbara  38 Nm West Of Santa Barbara, Ca

More Historic Weather Station data

Upgrade to MSW Pro to gain access to the past 30 days of data for over 8000 Wavebouys and Weather Stations around the globe.

Join Pro

Comparision Forecast

View Surf forecast
   
Mon 12/22 10:50am 11ft 14s 8s 27 34 mph 1018mb 62f 65f
9:50am 12ft 14s 8s 22 29 mph 1018.3mb 62f 65f
8:50am 11ft 14s 8s 25 29 mph 1017.5mb 62f 65f
7:50am 11.5ft 13s 8s 22 27 mph 1017.6mb 62f 65f
6:50am 11ft 14s 8s 27 34 mph 1017.2mb 62f 65f
5:50am 11ft 14s 8s 20 27 mph 1017.2mb 62f 65f
4:50am 11.5ft 14s 8s 25 31 mph 1016.9mb 62f 65f
3:50am 11ft 14s 8s 29 34 mph 1016.6mb 62f 64f
2:50am 12ft 15s 8s 29 34 mph 1016.8mb 62f 65f
1:50am 12ft 14s 8s 27 31 mph 1017.6mb 62f 65f
12:50am 11ft 15s 8s 18 22 mph 1018.5mb 63f 65f
Sun 12/21 11:50pm 11ft 14s 8s 11 18 mph 1019.6mb 63f 65f
10:50pm 10.5ft 15s 8s 29 34 mph 1018.4mb 63f 65f
9:50pm 10ft 14s 8s 20 27 mph 1019.7mb 63f 66f
8:50pm 10.5ft 13s 8s 34 40 mph 1018.8mb 63f 66f
7:50pm 11ft 15s 8s 31 38 mph 1018.1mb 63f 65f
6:50pm 12ft 15s 8s 29 36 mph 1018.4mb 63f 63f
5:50pm 11.5ft 15s 8s 29 36 mph 1019.1mb 63f 62f
4:50pm 11.5ft 13s 8s 27 34 mph 1019.3mb 63f 63f
3:50pm 10ft 13s 8s 27 36 mph 1019.5mb 63f 62f
2:50pm 11ft 15s 8s 27 34 mph 1019.2mb 63f 63f
1:50pm 10.5ft 15s 8s 27 31 mph 1019.1mb 63f 62f
12:50pm 11ft 15s 8s 27 34 mph 1019.8mb 63f 62f
11:50am 11ft 15s 8s 27 31 mph 1020.6mb 63f 62f
10:50am 11.5ft 15s 8s 27 34 mph 1021.3mb 62f 62f
9:50am 13ft 15s 9s 25 31 mph 1021.7mb 62f 62f
8:50am 10.5ft 15s 8s 29 36 mph 1021.2mb 62f 62f
7:50am 11ft 16s 8s 29 36 mph 1020.6mb 62f 62f
6:50am 10ft 15s 8s 27 34 mph 1020.9mb 62f 62f
5:50am 10.5ft 16s 9s 27 31 mph 1021.2mb 62f 62f
4:50am 11ft 16s 9s 22 29 mph 1021.3mb 62f 62f
3:50am 12.5ft 16s 9s 25 29 mph 1021.1mb 62f 62f
2:50am 11.5ft 16s 9s 25 29 mph 1021.4mb 62f 62f
1:50am 13ft 16s 9s 27 34 mph 1021.3mb 62f 62f
12:50am 11ft 15s 8s 29 36 mph 1021mb 63f 62f
Sat 12/20 11:50pm 13ft 16s 9s 29 34 mph 1021.6mb 62f 62f
10:50pm 13ft 16s 10s 25 29 mph 1021.8mb 62f 62f
9:50pm 13ft 17s 10s 25 31 mph 1022.1mb 62f 62f
8:50pm 14.5ft 17s 11s 25 31 mph 1021.6mb 63f 62f
7:50pm 13.5ft 16s 11s 22 29 mph 1021.5mb 63f 62f
6:50pm 14ft 16s 11s 25 29 mph 1021.3mb 63f 62f
5:50pm 15ft 17s 12s 20 25 mph 1021.1mb 63f 61f
4:50pm 14ft 17s 12s 22 27 mph 1020.8mb 63f 62f
3:50pm 14ft 17s 13s 18 22 mph 1020.7mb 63f 62f
2:50pm 12ft 17s 13s 13 18 mph 1020.3mb 63f 62f
1:50pm 15.5ft 17s 14s 13 16 mph 1020.2mb 63f 62f
12:50pm 14ft 17s 13s 11 16 mph 1021mb 63f 62f
11:50am 13ft 17s 13s 11 13 mph 1021.7mb 63f 62f
10:50am 13ft 17s 13s 11 16 mph 1022.2mb 63f 62f
9:50am 11.5ft 17s 13s 11 13 mph 1021.9mb 63f 62f
8:50am 13.5ft 19s 14s 9 11 mph 1021.4mb 63f 61f
7:50am 12ft 19s 13s 11 16 mph 1021.1mb 63f 61f
6:50am 14ft 19s 14s 11 13 mph 1020.6mb 63f 61f
5:50am 10.5ft 19s 12s 7 9 mph 1020.2mb 63f 60f
4:50am 10ft 19s 13s 4 9 mph 1020.1mb 63f 60f
3:50am 8ft 19s 12s 2 4 mph 1020.4mb 63f 60f
2:50am 8.5ft 19s 12s 4 7 mph 1021.1mb 63f 60f
1:50am 9ft 19s 13s 2
mph
1020.8mb 63f 60f
12:50am 7ft 21s 11s 2 7 mph 1021.2mb 63f 60f
Fri 12/19 11:50pm 7ft 21s 11s 2 4 mph 1021.9mb 63f 60f
10:50pm 7ft 21s 11s 7
mph
1021.2mb 63f 60f
9:50pm 6ft 21s 11s 4
mph
1021.2mb 63f 60f
8:50pm 6.5ft 21s 10s 4 7 mph 1021.4mb 63f 60f
7:50pm 6ft 12s 10s 7 9 mph 1021.6mb 62f 60f
6:50pm 6ft 13s 10s 4 7 mph 1021.5mb 62f 60f
5:50pm 5ft 13s 10s 7 9 mph 1021.5mb 62f 60f
4:50pm 6ft 13s 10s 7 9 mph 1021.6mb 62f 60f
3:50pm 5ft 12s 9s 7
mph
1021.6mb 63f 60f
2:50pm 5ft 12s 8s 2
mph
1021mb 64f 61f
1:50pm 5.5ft 13s 8s 2 4 mph 1021mb 64f 61f
12:50pm 5ft 13s 8s 2
mph
1021.9mb 64f 60f
11:50am 5ft 13s 8s  -  2 mph 1023.1mb 63f 60f
10:50am 6ft 13s 8s 4
mph
1024.1mb 63f 60f
9:50am 6ft 12s 9s 2 4 mph 1023.4mb 61f 60f
8:50am 6ft 12s 9s 4
mph
1022.8mb 61f 60f
7:50am 6ft 13s 9s 2 4 mph 1022.2mb 61f 60f
6:50am 6.5ft 11s 9s  -  2 mph 1022.4mb 61f 59f
5:50am 7ft 11s 9s  -  2 mph 1021.8mb 61f 59f
4:50am 8ft 14s 9s 4 7 mph 1021.5mb 61f 59f
3:50am 7ft 12s 9s 4
mph
1022.7mb 61f 59f
2:50am 8ft 12s 10s 4 7 mph 1022.9mb 61f 59f
1:50am 9ft 14s 10s 4 9 mph 1021.5mb 61f 59f
12:50am 8ft 13s 10s 4 7 mph 1022.2mb 61f 59f
Thu 12/18 11:50pm 9ft 14s 10s 2 4 mph 1023mb 61f 59f
10:50pm 8ft 14s 10s 2 4 mph 1022.7mb 61f 59f
9:50pm 8.5ft 14s 10s 2 4 mph 1022.5mb 61f 59f
8:50pm 7ft 15s 9s 2 4 mph 1022.3mb 61f 59f